createdAt,value
2023-02-04T00:05:11.103Z,5.74
2023-02-04T00:11:13.078Z,5.73
2023-02-04T00:17:14.976Z,5.78
2023-02-04T00:23:16.874Z,5.81
2023-02-04T00:29:18.734Z,5.87
2023-02-04T00:35:21.484Z,5.79
2023-02-04T00:41:23.362Z,5.68
2023-02-04T00:47:25.283Z,5.73
2023-02-04T00:53:27.151Z,5.54
2023-02-04T00:59:29.081Z,5.48
2023-02-04T01:05:30.983Z,5.37
2023-02-04T01:11:33.402Z,5.36
2023-02-04T01:17:35.296Z,5.38
2023-02-04T01:23:37.500Z,5.37
2023-02-04T01:29:39.387Z,5.18
2023-02-04T01:35:41.271Z,5.09
2023-02-04T01:41:43.310Z,4.95
2023-02-04T01:47:46.997Z,4.94
2023-02-04T01:53:48.910Z,4.91
2023-02-04T01:59:55.392Z,4.90
2023-02-04T02:05:57.317Z,4.86
2023-02-04T02:12:01.536Z,5.05
2023-02-04T02:18:04.042Z,5.05
2023-02-04T02:24:30.101Z,5.04
2023-02-04T02:30:32.613Z,5.11
2023-02-04T02:36:34.769Z,5.04
2023-02-04T02:42:37.127Z,4.91
2023-02-04T02:48:39.009Z,5.03
2023-02-04T02:54:42.132Z,4.90
2023-02-04T03:00:44.446Z,4.97
2023-02-04T03:06:46.801Z,4.41
2023-02-04T03:12:48.860Z,3.63
2023-02-04T03:18:51.033Z,3.25
2023-02-04T03:24:53.080Z,3.26
2023-02-04T03:30:56.014Z,3.50
2023-02-04T03:36:58.058Z,3.35
2023-02-04T03:43:00.428Z,3.39
2023-02-04T03:49:02.327Z,3.23
2023-02-04T03:55:04.344Z,3.24
2023-02-04T04:01:06.268Z,3.33
2023-02-04T04:07:08.204Z,3.20
2023-02-04T04:13:10.252Z,3.15
2023-02-04T04:19:12.138Z,3.12
2023-02-04T04:25:14.067Z,3.16
2023-02-04T04:31:16.133Z,3.18
2023-02-04T04:37:18.150Z,3.00
2023-02-04T04:43:20.170Z,2.92
2023-02-04T04:49:22.141Z,3.09
2023-02-04T04:55:24.075Z,3.12
2023-02-04T05:01:25.979Z,3.01
2023-02-04T05:07:27.940Z,2.98
2023-02-04T05:13:30.265Z,3.21
2023-02-04T05:19:32.204Z,2.95
2023-02-04T05:25:34.149Z,2.71
2023-02-04T05:31:36.261Z,2.63
2023-02-04T05:37:38.165Z,2.58
2023-02-04T05:43:40.120Z,2.44
2023-02-04T05:49:42.007Z,2.30
2023-02-04T05:55:44.029Z,2.12
2023-02-04T06:01:45.911Z,1.99
2023-02-04T06:07:47.775Z,1.86
2023-02-04T06:13:49.653Z,1.74
2023-02-04T06:19:51.586Z,1.80
2023-02-04T06:25:53.454Z,1.69
2023-02-04T06:31:55.472Z,1.57
2023-02-04T06:37:58.315Z,1.42
2023-02-04T06:44:00.207Z,1.36
2023-02-04T06:50:02.127Z,1.25
2023-02-04T06:56:04.111Z,1.51
2023-02-04T07:02:07.744Z,1.26
2023-02-04T07:08:09.660Z,1.12
2023-02-04T07:14:11.583Z,1.18
2023-02-04T07:20:13.530Z,1.25
2023-02-04T07:26:15.406Z,1.35
2023-02-04T07:32:17.301Z,1.37
2023-02-04T07:38:19.183Z,1.38
2023-02-04T07:44:21.328Z,1.63
2023-02-04T07:50:23.282Z,1.73
2023-02-04T07:56:25.166Z,1.83
2023-02-04T08:02:27.451Z,2.09
2023-02-04T08:08:29.433Z,2.17
2023-02-04T08:14:31.407Z,2.41
2023-02-04T08:20:33.773Z,2.63
2023-02-04T08:26:35.732Z,2.82
2023-02-04T08:32:39.256Z,3.02
2023-02-04T08:38:41.406Z,3.15
2023-02-04T08:44:43.934Z,2.98
2023-02-04T08:50:45.820Z,2.96
2023-02-04T08:56:47.693Z,3.18
2023-02-04T09:02:49.585Z,3.36
2023-02-04T09:08:51.449Z,3.51
2023-02-04T09:14:53.351Z,3.99
2023-02-04T09:20:55.235Z,4.92
2023-02-04T09:26:57.129Z,5.37
2023-02-04T09:32:58.994Z,5.26
2023-02-04T09:39:00.876Z,5.04
2023-02-04T09:45:03.510Z,5.04
2023-02-04T09:51:07.944Z,5.05
2023-02-04T09:57:20.193Z,5.87
2023-02-04T10:03:23.275Z,7.23
2023-02-04T10:09:25.163Z,8.08
2023-02-04T10:15:28.301Z,6.95
2023-02-04T10:21:33.434Z,6.30
2023-02-04T10:27:35.376Z,6.04
2023-02-04T10:33:39.071Z,5.93
2023-02-04T10:39:44.108Z,5.56
2023-02-04T10:46:03.518Z,5.85
2023-02-04T10:52:18.333Z,5.95
2023-02-04T10:58:29.510Z,6.54
2023-02-04T11:04:31.817Z,6.81
2023-02-04T11:10:34.970Z,7.25
2023-02-04T11:16:48.727Z,7.35
2023-02-04T11:22:53.863Z,7.58
2023-02-04T11:28:57.358Z,8.55
2023-02-04T11:35:11.610Z,8.39
2023-02-04T11:41:26.958Z,9.09
2023-02-04T11:47:36.242Z,9.38
2023-02-04T11:53:38.128Z,9.05
2023-02-04T11:59:40.038Z,9.43
2023-02-04T12:05:47.238Z,8.93
2023-02-04T12:11:59.001Z,8.83
2023-02-04T12:18:10.194Z,8.88
2023-02-04T12:24:12.153Z,8.34
2023-02-04T12:30:14.401Z,9.18
2023-02-04T12:36:16.262Z,11.20
2023-02-04T12:42:18.151Z,11.18
2023-02-04T12:48:20.171Z,11.39
2023-02-04T12:54:22.077Z,10.69
2023-02-04T13:00:24.849Z,11.08
2023-02-04T13:06:26.764Z,11.03
2023-02-04T13:12:28.800Z,11.62
2023-02-04T13:18:30.891Z,12.16
2023-02-04T13:24:32.961Z,11.26
2023-02-04T13:30:34.952Z,9.78
2023-02-04T13:36:36.899Z,10.32
2023-02-04T13:42:38.808Z,9.71
2023-02-04T13:48:40.741Z,9.50
2023-02-04T13:54:42.628Z,9.10
2023-02-04T14:00:44.590Z,8.30
2023-02-04T14:06:46.587Z,9.64
2023-02-04T14:12:48.592Z,9.04
2023-02-04T14:18:50.518Z,8.66
2023-02-04T14:24:52.430Z,8.46
2023-02-04T14:30:54.915Z,8.12
2023-02-04T14:36:56.838Z,7.67
2023-02-04T14:42:58.758Z,7.50
2023-02-04T14:49:00.629Z,7.53
2023-02-04T14:55:02.592Z,7.25
2023-02-04T15:01:04.752Z,7.55
2023-02-04T15:07:06.907Z,7.66
2023-02-04T15:13:08.871Z,7.59
2023-02-04T15:19:10.979Z,7.69
2023-02-04T15:25:13.544Z,7.77
2023-02-04T15:31:15.648Z,7.26
2023-02-04T15:37:17.664Z,6.88
2023-02-04T15:43:19.900Z,6.44
2023-02-04T15:49:21.918Z,5.79
2023-02-04T15:55:23.988Z,5.20
2023-02-04T16:01:26.447Z,4.63
2023-02-04T16:07:28.333Z,4.00
2023-02-04T16:13:30.228Z,3.49
2023-02-04T16:19:32.175Z,2.99
2023-02-04T16:25:34.974Z,2.70
2023-02-04T16:31:37.065Z,2.40
2023-02-04T16:37:38.975Z,2.27
2023-02-04T16:43:40.909Z,1.96
2023-02-04T16:49:44.849Z,1.90
2023-02-04T16:55:48.223Z,1.97
2023-02-04T17:01:50.156Z,1.81
2023-02-04T17:07:52.073Z,1.73
2023-02-04T17:13:54.004Z,1.64
2023-02-04T17:19:55.964Z,1.53
2023-02-04T17:25:57.903Z,1.64
2023-02-04T17:31:59.798Z,1.77
2023-02-04T17:38:02.514Z,1.86
2023-02-04T17:44:04.792Z,1.84
2023-02-04T17:50:09.968Z,2.09
2023-02-04T17:56:13.945Z,2.00
2023-02-04T18:02:32.285Z,1.96
2023-02-04T18:08:40.553Z,1.90
2023-02-04T18:14:44.759Z,1.72
2023-02-04T18:20:50.271Z,1.56
2023-02-04T18:26:55.232Z,1.41
2023-02-04T18:32:57.368Z,1.24
2023-02-04T18:38:59.994Z,1.11
2023-02-04T18:45:25.065Z,0.99
2023-02-04T18:51:45.928Z,0.87
2023-02-04T18:57:47.806Z,0.86
2023-02-04T19:04:03.444Z,0.84
2023-02-04T19:10:28.614Z,0.78
2023-02-04T19:16:36.718Z,0.82
2023-02-04T19:22:54.217Z,0.78
2023-02-04T19:28:56.297Z,0.71
2023-02-04T19:35:11.590Z,0.71
2023-02-04T19:41:52.650Z,0.65
2023-02-04T19:47:57.118Z,0.67
2023-02-04T19:54:18.629Z,0.65
2023-02-04T20:00:46.641Z,0.50
2023-02-04T20:06:48.782Z,0.49
2023-02-04T20:12:55.959Z,0.38
2023-02-04T20:18:59.960Z,0.32
2023-02-04T20:25:47.983Z,0.26
2023-02-04T20:31:50.296Z,0.21
2023-02-04T20:37:57.472Z,0.17
2023-02-04T20:43:59.365Z,0.03
2023-02-04T20:50:01.322Z,0.07
2023-02-04T20:56:48.208Z,0.02
2023-02-04T21:02:50.131Z,-0.18
2023-02-04T21:08:54.565Z,-0.20
2023-02-04T21:14:56.542Z,-0.23
2023-02-04T21:20:58.460Z,-0.22
2023-02-04T21:27:00.387Z,-0.18
2023-02-04T21:33:02.474Z,-0.19
2023-02-04T21:39:05.086Z,-0.14
2023-02-04T21:45:07.766Z,-0.06
2023-02-04T21:51:10.238Z,-0.04
2023-02-04T21:57:12.145Z,-0.10
2023-02-04T22:03:17.169Z,-0.16
2023-02-04T22:09:19.136Z,-0.20
2023-02-04T22:15:21.638Z,-0.14
2023-02-04T22:21:23.553Z,-0.12
2023-02-04T22:27:25.469Z,-0.23
2023-02-04T22:33:27.329Z,-0.35
2023-02-04T22:39:29.531Z,-0.42
2023-02-04T22:45:31.796Z,-0.53
2023-02-04T22:51:34.210Z,-0.52
2023-02-04T22:57:36.088Z,-0.53
2023-02-04T23:03:37.961Z,-0.47
2023-02-04T23:09:40.298Z,-0.48
2023-02-04T23:15:42.603Z,-0.32
2023-02-04T23:21:44.571Z,-0.34
2023-02-04T23:27:46.882Z,-0.34
2023-02-04T23:33:48.819Z,-0.57
2023-02-04T23:39:50.692Z,-0.60
2023-02-04T23:45:52.911Z,-0.72
2023-02-04T23:51:54.873Z,-0.54
2023-02-04T23:57:56.771Z,-0.66
